sensor_id;sensor_type;location;lat;lon;timestamp;P1;durP1;ratioP1;P2;durP2;ratioP2
32038;SDS011;18549;42.286;22.688;2022-11-15T00:00:56;105.47;;;47.83;;
32038;SDS011;18549;42.286;22.688;2022-11-15T00:03:23;99.43;;;48.23;;
32038;SDS011;18549;42.286;22.688;2022-11-15T00:05:51;79.47;;;40.73;;
32038;SDS011;18549;42.286;22.688;2022-11-15T00:08:21;67.57;;;37.20;;
32038;SDS011;18549;42.286;22.688;2022-11-15T00:10:54;51.47;;;27.40;;
32038;SDS011;18549;42.286;22.688;2022-11-15T00:13:25;36.33;;;21.50;;
32038;SDS011;18549;42.286;22.688;2022-11-15T00:15:56;40.87;;;20.60;;
32038;SDS011;18549;42.286;22.688;2022-11-15T00:18:23;54.77;;;26.00;;
32038;SDS011;18549;42.286;22.688;2022-11-15T00:20:50;50.57;;;26.57;;
32038;SDS011;18549;42.286;22.688;2022-11-15T00:23:17;49.60;;;28.00;;
32038;SDS011;18549;42.286;22.688;2022-11-15T00:25:44;46.83;;;27.87;;
32038;SDS011;18549;42.286;22.688;2022-11-15T00:28:12;49.27;;;25.87;;
32038;SDS011;18549;42.286;22.688;2022-11-15T00:30:43;45.27;;;25.83;;
32038;SDS011;18549;42.286;22.688;2022-11-15T00:33:13;46.70;;;26.73;;
32038;SDS011;18549;42.286;22.688;2022-11-15T00:35:41;44.03;;;25.40;;
32038;SDS011;18549;42.286;22.688;2022-11-15T00:38:08;48.73;;;25.33;;
32038;SDS011;18549;42.286;22.688;2022-11-15T00:40:35;40.17;;;25.17;;
32038;SDS011;18549;42.286;22.688;2022-11-15T00:43:01;40.03;;;22.97;;
32038;SDS011;18549;42.286;22.688;2022-11-15T00:45:28;42.70;;;26.23;;
32038;SDS011;18549;42.286;22.688;2022-11-15T00:47:55;48.57;;;26.13;;
32038;SDS011;18549;42.286;22.688;2022-11-15T00:50:31;94.93;;;46.93;;
32038;SDS011;18549;42.286;22.688;2022-11-15T00:53:00;95.03;;;45.87;;
32038;SDS011;18549;42.286;22.688;2022-11-15T00:55:27;57.40;;;33.33;;
32038;SDS011;18549;42.286;22.688;2022-11-15T00:57:54;60.53;;;32.57;;
32038;SDS011;18549;42.286;22.688;2022-11-15T01:00:21;62.53;;;32.87;;
32038;SDS011;18549;42.286;22.688;2022-11-15T01:02:48;48.63;;;27.13;;
32038;SDS011;18549;42.286;22.688;2022-11-15T01:05:15;47.83;;;26.83;;
32038;SDS011;18549;42.286;22.688;2022-11-15T01:07:43;45.70;;;27.30;;
32038;SDS011;18549;42.286;22.688;2022-11-15T01:10:10;39.93;;;24.67;;
32038;SDS011;18549;42.286;22.688;2022-11-15T01:12:37;43.40;;;24.37;;
32038;SDS011;18549;42.286;22.688;2022-11-15T01:15:05;41.53;;;24.67;;
32038;SDS011;18549;42.286;22.688;2022-11-15T01:17:32;39.83;;;24.30;;
32038;SDS011;18549;42.286;22.688;2022-11-15T01:19:59;45.83;;;26.00;;
32038;SDS011;18549;42.286;22.688;2022-11-15T01:22:26;39.10;;;24.23;;
32038;SDS011;18549;42.286;22.688;2022-11-15T01:24:57;46.80;;;27.03;;
32038;SDS011;18549;42.286;22.688;2022-11-15T01:27:24;58.23;;;30.60;;
32038;SDS011;18549;42.286;22.688;2022-11-15T01:29:51;51.83;;;28.53;;
32038;SDS011;18549;42.286;22.688;2022-11-15T01:32:19;54.53;;;30.47;;
32038;SDS011;18549;42.286;22.688;2022-11-15T01:34:46;64.00;;;33.30;;
32038;SDS011;18549;42.286;22.688;2022-11-15T01:37:14;67.70;;;37.30;;
32038;SDS011;18549;42.286;22.688;2022-11-15T01:39:41;79.70;;;41.17;;
32038;SDS011;18549;42.286;22.688;2022-11-15T01:42:10;66.40;;;40.30;;
32038;SDS011;18549;42.286;22.688;2022-11-15T01:44:40;65.53;;;39.27;;
32038;SDS011;18549;42.286;22.688;2022-11-15T01:47:09;84.70;;;49.33;;
32038;SDS011;18549;42.286;22.688;2022-11-15T01:49:49;94.13;;;54.27;;
32038;SDS011;18549;42.286;22.688;2022-11-15T01:52:20;87.97;;;53.97;;
32038;SDS011;18549;42.286;22.688;2022-11-15T01:54:48;93.73;;;56.37;;
32038;SDS011;18549;42.286;22.688;2022-11-15T01:57:20;96.70;;;55.13;;
32038;SDS011;18549;42.286;22.688;2022-11-15T01:59:48;94.50;;;55.37;;
32038;SDS011;18549;42.286;22.688;2022-11-15T02:02:16;97.67;;;59.43;;
32038;SDS011;18549;42.286;22.688;2022-11-15T02:04:45;101.87;;;58.83;;
32038;SDS011;18549;42.286;22.688;2022-11-15T02:07:17;87.57;;;54.63;;
32038;SDS011;18549;42.286;22.688;2022-11-15T02:09:46;91.73;;;56.17;;
32038;SDS011;18549;42.286;22.688;2022-11-15T02:12:14;87.37;;;53.47;;
32038;SDS011;18549;42.286;22.688;2022-11-15T02:14:46;77.27;;;52.37;;
32038;SDS011;18549;42.286;22.688;2022-11-15T02:20:15;84.50;;;51.30;;
32038;SDS011;18549;42.286;22.688;2022-11-15T02:23:00;85.00;;;51.37;;
32038;SDS011;18549;42.286;22.688;2022-11-15T02:25:41;82.37;;;49.37;;
32038;SDS011;18549;42.286;22.688;2022-11-15T02:28:28;76.87;;;47.23;;
32038;SDS011;18549;42.286;22.688;2022-11-15T02:31:09;66.47;;;43.73;;
32038;SDS011;18549;42.286;22.688;2022-11-15T02:33:41;66.03;;;42.40;;
32038;SDS011;18549;42.286;22.688;2022-11-15T02:36:16;65.50;;;40.80;;
32038;SDS011;18549;42.286;22.688;2022-11-15T02:38:52;64.07;;;36.73;;
32038;SDS011;18549;42.286;22.688;2022-11-15T02:41:25;62.37;;;34.20;;
32038;SDS011;18549;42.286;22.688;2022-11-15T02:43:59;56.57;;;34.97;;
32038;SDS011;18549;42.286;22.688;2022-11-15T02:46:30;48.27;;;31.60;;
32038;SDS011;18549;42.286;22.688;2022-11-15T02:49:18;57.30;;;35.53;;
32038;SDS011;18549;42.286;22.688;2022-11-15T02:51:48;52.50;;;35.83;;
32038;SDS011;18549;42.286;22.688;2022-11-15T02:54:19;60.97;;;34.83;;
32038;SDS011;18549;42.286;22.688;2022-11-15T02:56:48;50.43;;;32.80;;
32038;SDS011;18549;42.286;22.688;2022-11-15T02:59:20;44.07;;;27.63;;
32038;SDS011;18549;42.286;22.688;2022-11-15T03:02:04;49.20;;;28.87;;
32038;SDS011;18549;42.286;22.688;2022-11-15T03:04:43;43.27;;;27.77;;
32038;SDS011;18549;42.286;22.688;2022-11-15T03:07:14;49.20;;;30.67;;
32038;SDS011;18549;42.286;22.688;2022-11-15T03:09:46;36.90;;;26.43;;
32038;SDS011;18549;42.286;22.688;2022-11-15T03:12:22;37.70;;;23.73;;
32038;SDS011;18549;42.286;22.688;2022-11-15T03:14:54;42.53;;;24.33;;
32038;SDS011;18549;42.286;22.688;2022-11-15T03:17:29;44.57;;;26.17;;
32038;SDS011;18549;42.286;22.688;2022-11-15T03:20:01;51.63;;;28.07;;
32038;SDS011;18549;42.286;22.688;2022-11-15T03:22:33;54.67;;;29.30;;
32038;SDS011;18549;42.286;22.688;2022-11-15T03:25:04;50.10;;;31.07;;
32038;SDS011;18549;42.286;22.688;2022-11-15T03:27:38;59.37;;;36.77;;
32038;SDS011;18549;42.286;22.688;2022-11-15T03:30:09;67.47;;;36.60;;
32038;SDS011;18549;42.286;22.688;2022-11-15T03:32:39;55.50;;;34.13;;
32038;SDS011;18549;42.286;22.688;2022-11-15T03:35:13;38.20;;;23.20;;
32038;SDS011;18549;42.286;22.688;2022-11-15T03:37:44;30.87;;;20.50;;
32038;SDS011;18549;42.286;22.688;2022-11-15T03:40:15;40.87;;;22.33;;
32038;SDS011;18549;42.286;22.688;2022-11-15T03:42:44;35.27;;;21.57;;
32038;SDS011;18549;42.286;22.688;2022-11-15T03:45:16;37.83;;;23.50;;
32038;SDS011;18549;42.286;22.688;2022-11-15T03:47:47;37.17;;;22.20;;
32038;SDS011;18549;42.286;22.688;2022-11-15T03:50:18;42.23;;;25.10;;
32038;SDS011;18549;42.286;22.688;2022-11-15T03:52:48;37.77;;;25.93;;
32038;SDS011;18549;42.286;22.688;2022-11-15T03:55:16;37.77;;;25.00;;
32038;SDS011;18549;42.286;22.688;2022-11-15T03:57:52;43.20;;;24.90;;
32038;SDS011;18549;42.286;22.688;2022-11-15T04:00:21;38.43;;;24.60;;
32038;SDS011;18549;42.286;22.688;2022-11-15T04:02:49;42.73;;;23.60;;
32038;SDS011;18549;42.286;22.688;2022-11-15T04:05:17;41.10;;;24.90;;
32038;SDS011;18549;42.286;22.688;2022-11-15T04:07:44;35.17;;;22.83;;
32038;SDS011;18549;42.286;22.688;2022-11-15T04:10:11;31.97;;;21.87;;
32038;SDS011;18549;42.286;22.688;2022-11-15T04:12:39;38.10;;;24.43;;
32038;SDS011;18549;42.286;22.688;2022-11-15T04:15:09;40.93;;;24.33;;
32038;SDS011;18549;42.286;22.688;2022-11-15T04:17:40;30.90;;;22.03;;
32038;SDS011;18549;42.286;22.688;2022-11-15T04:20:11;34.77;;;21.60;;
32038;SDS011;18549;42.286;22.688;2022-11-15T04:22:57;33.47;;;21.37;;
32038;SDS011;18549;42.286;22.688;2022-11-15T04:25:42;35.53;;;21.43;;
32038;SDS011;18549;42.286;22.688;2022-11-15T04:28:12;40.27;;;22.57;;
32038;SDS011;18549;42.286;22.688;2022-11-15T04:30:39;37.00;;;21.67;;
32038;SDS011;18549;42.286;22.688;2022-11-15T04:33:07;39.47;;;23.50;;
32038;SDS011;18549;42.286;22.688;2022-11-15T04:35:35;48.13;;;24.87;;
32038;SDS011;18549;42.286;22.688;2022-11-15T04:38:04;52.10;;;31.83;;
32038;SDS011;18549;42.286;22.688;2022-11-15T04:40:31;74.07;;;41.43;;
32038;SDS011;18549;42.286;22.688;2022-11-15T04:42:57;88.97;;;47.87;;
32038;SDS011;18549;42.286;22.688;2022-11-15T04:45:24;95.43;;;56.70;;
32038;SDS011;18549;42.286;22.688;2022-11-15T04:47:52;102.73;;;58.67;;
32038;SDS011;18549;42.286;22.688;2022-11-15T04:50:18;98.50;;;59.07;;
32038;SDS011;18549;42.286;22.688;2022-11-15T04:52:51;102.97;;;56.87;;
32038;SDS011;18549;42.286;22.688;2022-11-15T04:55:20;127.77;;;64.83;;
32038;SDS011;18549;42.286;22.688;2022-11-15T04:57:47;120.00;;;61.90;;
32038;SDS011;18549;42.286;22.688;2022-11-15T05:00:14;106.17;;;56.33;;
32038;SDS011;18549;42.286;22.688;2022-11-15T05:02:43;109.17;;;54.67;;
32038;SDS011;18549;42.286;22.688;2022-11-15T05:05:27;120.33;;;58.97;;
32038;SDS011;18549;42.286;22.688;2022-11-15T05:07:57;119.80;;;61.67;;
32038;SDS011;18549;42.286;22.688;2022-11-15T05:10:24;134.70;;;68.27;;
32038;SDS011;18549;42.286;22.688;2022-11-15T05:12:51;133.07;;;62.33;;
32038;SDS011;18549;42.286;22.688;2022-11-15T05:15:18;101.37;;;52.83;;
32038;SDS011;18549;42.286;22.688;2022-11-15T05:17:45;95.63;;;50.40;;
32038;SDS011;18549;42.286;22.688;2022-11-15T05:20:12;122.20;;;52.87;;
32038;SDS011;18549;42.286;22.688;2022-11-15T05:22:39;114.70;;;55.57;;
32038;SDS011;18549;42.286;22.688;2022-11-15T05:25:09;123.40;;;58.37;;
32038;SDS011;18549;42.286;22.688;2022-11-15T05:27:36;114.83;;;55.67;;
32038;SDS011;18549;42.286;22.688;2022-11-15T05:30:03;110.43;;;58.17;;
32038;SDS011;18549;42.286;22.688;2022-11-15T05:32:30;121.67;;;63.17;;
32038;SDS011;18549;42.286;22.688;2022-11-15T05:34:58;136.93;;;67.53;;
32038;SDS011;18549;42.286;22.688;2022-11-15T05:37:25;121.97;;;66.53;;
32038;SDS011;18549;42.286;22.688;2022-11-15T05:39:53;122.33;;;64.63;;
32038;SDS011;18549;42.286;22.688;2022-11-15T05:42:21;129.23;;;66.90;;
32038;SDS011;18549;42.286;22.688;2022-11-15T05:44:48;130.67;;;65.43;;
32038;SDS011;18549;42.286;22.688;2022-11-15T05:47:16;129.33;;;68.67;;
32038;SDS011;18549;42.286;22.688;2022-11-15T05:49:46;135.20;;;67.80;;
32038;SDS011;18549;42.286;22.688;2022-11-15T05:52:16;124.77;;;64.47;;
32038;SDS011;18549;42.286;22.688;2022-11-15T05:54:46;121.93;;;62.60;;
32038;SDS011;18549;42.286;22.688;2022-11-15T05:57:14;137.30;;;69.93;;
32038;SDS011;18549;42.286;22.688;2022-11-15T05:59:43;140.30;;;78.10;;
32038;SDS011;18549;42.286;22.688;2022-11-15T06:02:10;140.23;;;76.67;;
32038;SDS011;18549;42.286;22.688;2022-11-15T06:04:37;162.47;;;81.27;;
32038;SDS011;18549;42.286;22.688;2022-11-15T06:07:05;128.70;;;70.40;;
32038;SDS011;18549;42.286;22.688;2022-11-15T06:09:31;130.83;;;65.67;;
32038;SDS011;18549;42.286;22.688;2022-11-15T06:11:58;140.93;;;69.83;;
32038;SDS011;18549;42.286;22.688;2022-11-15T06:14:25;235.87;;;112.03;;
32038;SDS011;18549;42.286;22.688;2022-11-15T06:16:54;313.17;;;138.50;;
32038;SDS011;18549;42.286;22.688;2022-11-15T06:19:22;365.20;;;151.93;;
32038;SDS011;18549;42.286;22.688;2022-11-15T06:21:49;329.33;;;138.30;;
32038;SDS011;18549;42.286;22.688;2022-11-15T06:24:16;311.43;;;131.13;;
32038;SDS011;18549;42.286;22.688;2022-11-15T06:26:45;266.23;;;116.70;;
32038;SDS011;18549;42.286;22.688;2022-11-15T06:29:12;243.97;;;105.03;;
32038;SDS011;18549;42.286;22.688;2022-11-15T06:31:39;243.17;;;108.50;;
32038;SDS011;18549;42.286;22.688;2022-11-15T06:34:07;238.47;;;100.93;;
32038;SDS011;18549;42.286;22.688;2022-11-15T06:36:36;225.63;;;91.17;;
32038;SDS011;18549;42.286;22.688;2022-11-15T06:39:03;199.17;;;81.73;;
32038;SDS011;18549;42.286;22.688;2022-11-15T06:41:33;195.97;;;82.23;;
32038;SDS011;18549;42.286;22.688;2022-11-15T06:44:01;227.27;;;99.73;;
32038;SDS011;18549;42.286;22.688;2022-11-15T06:46:32;208.83;;;91.57;;
32038;SDS011;18549;42.286;22.688;2022-11-15T06:48:59;194.63;;;86.20;;
32038;SDS011;18549;42.286;22.688;2022-11-15T06:51:28;200.33;;;92.73;;
32038;SDS011;18549;42.286;22.688;2022-11-15T06:53:56;192.03;;;91.00;;
32038;SDS011;18549;42.286;22.688;2022-11-15T06:56:23;193.20;;;92.33;;
32038;SDS011;18549;42.286;22.688;2022-11-15T06:58:49;196.17;;;95.77;;
32038;SDS011;18549;42.286;22.688;2022-11-15T07:01:16;218.87;;;107.33;;
32038;SDS011;18549;42.286;22.688;2022-11-15T07:03:44;209.97;;;111.93;;
32038;SDS011;18549;42.286;22.688;2022-11-15T07:06:11;224.00;;;112.60;;
32038;SDS011;18549;42.286;22.688;2022-11-15T07:08:40;200.43;;;99.33;;
32038;SDS011;18549;42.286;22.688;2022-11-15T07:11:08;184.63;;;98.83;;
32038;SDS011;18549;42.286;22.688;2022-11-15T07:13:35;211.47;;;103.27;;
32038;SDS011;18549;42.286;22.688;2022-11-15T07:16:06;207.27;;;96.73;;
32038;SDS011;18549;42.286;22.688;2022-11-15T07:18:37;128.47;;;70.27;;
32038;SDS011;18549;42.286;22.688;2022-11-15T07:21:05;149.47;;;75.43;;
32038;SDS011;18549;42.286;22.688;2022-11-15T07:23:33;171.70;;;89.80;;
32038;SDS011;18549;42.286;22.688;2022-11-15T07:26:05;182.13;;;94.70;;
32038;SDS011;18549;42.286;22.688;2022-11-15T07:28:35;170.30;;;90.50;;
32038;SDS011;18549;42.286;22.688;2022-11-15T07:31:02;135.13;;;72.60;;
32038;SDS011;18549;42.286;22.688;2022-11-15T07:33:29;99.87;;;56.33;;
32038;SDS011;18549;42.286;22.688;2022-11-15T07:35:58;104.43;;;60.47;;
32038;SDS011;18549;42.286;22.688;2022-11-15T07:38:26;99.20;;;57.83;;
32038;SDS011;18549;42.286;22.688;2022-11-15T07:40:55;81.73;;;48.77;;
32038;SDS011;18549;42.286;22.688;2022-11-15T07:43:25;79.47;;;44.37;;
32038;SDS011;18549;42.286;22.688;2022-11-15T07:45:53;68.30;;;42.30;;
32038;SDS011;18549;42.286;22.688;2022-11-15T07:48:21;66.47;;;39.10;;
32038;SDS011;18549;42.286;22.688;2022-11-15T07:50:49;86.87;;;47.37;;
32038;SDS011;18549;42.286;22.688;2022-11-15T07:53:16;79.63;;;45.83;;
32038;SDS011;18549;42.286;22.688;2022-11-15T07:55:43;83.00;;;47.70;;
32038;SDS011;18549;42.286;22.688;2022-11-15T07:58:10;90.83;;;52.27;;
32038;SDS011;18549;42.286;22.688;2022-11-15T08:00:41;88.07;;;48.20;;
32038;SDS011;18549;42.286;22.688;2022-11-15T08:03:09;81.63;;;51.60;;
32038;SDS011;18549;42.286;22.688;2022-11-15T08:05:38;95.17;;;52.23;;
32038;SDS011;18549;42.286;22.688;2022-11-15T08:08:06;92.67;;;54.03;;
32038;SDS011;18549;42.286;22.688;2022-11-15T08:10:34;95.37;;;55.73;;
32038;SDS011;18549;42.286;22.688;2022-11-15T08:13:03;99.20;;;56.33;;
32038;SDS011;18549;42.286;22.688;2022-11-15T08:15:31;96.07;;;58.77;;
32038;SDS011;18549;42.286;22.688;2022-11-15T08:18:01;101.33;;;59.53;;
32038;SDS011;18549;42.286;22.688;2022-11-15T08:20:30;94.97;;;54.17;;
32038;SDS011;18549;42.286;22.688;2022-11-15T08:22:59;89.87;;;55.87;;
32038;SDS011;18549;42.286;22.688;2022-11-15T08:25:28;110.80;;;62.70;;
32038;SDS011;18549;42.286;22.688;2022-11-15T08:27:57;136.37;;;67.60;;
32038;SDS011;18549;42.286;22.688;2022-11-15T08:30:25;112.20;;;66.63;;
32038;SDS011;18549;42.286;22.688;2022-11-15T08:32:53;100.13;;;60.50;;
32038;SDS011;18549;42.286;22.688;2022-11-15T08:35:24;84.80;;;52.83;;
32038;SDS011;18549;42.286;22.688;2022-11-15T08:37:52;90.20;;;52.77;;
32038;SDS011;18549;42.286;22.688;2022-11-15T08:40:19;88.80;;;53.87;;
32038;SDS011;18549;42.286;22.688;2022-11-15T08:42:48;65.93;;;42.87;;
32038;SDS011;18549;42.286;22.688;2022-11-15T08:45:15;65.50;;;41.67;;
32038;SDS011;18549;42.286;22.688;2022-11-15T08:47:42;57.40;;;39.93;;
32038;SDS011;18549;42.286;22.688;2022-11-15T08:50:09;71.40;;;43.97;;
32038;SDS011;18549;42.286;22.688;2022-11-15T08:52:37;68.63;;;37.47;;
32038;SDS011;18549;42.286;22.688;2022-11-15T08:55:05;42.37;;;29.53;;
32038;SDS011;18549;42.286;22.688;2022-11-15T08:57:33;50.93;;;31.03;;
32038;SDS011;18549;42.286;22.688;2022-11-15T09:00:00;38.97;;;26.40;;
32038;SDS011;18549;42.286;22.688;2022-11-15T09:02:27;41.87;;;26.40;;
32038;SDS011;18549;42.286;22.688;2022-11-15T09:04:54;40.47;;;24.87;;
32038;SDS011;18549;42.286;22.688;2022-11-15T09:07:21;29.33;;;21.87;;
32038;SDS011;18549;42.286;22.688;2022-11-15T09:09:49;35.37;;;23.03;;
32038;SDS011;18549;42.286;22.688;2022-11-15T09:12:16;34.40;;;22.23;;
32038;SDS011;18549;42.286;22.688;2022-11-15T09:14:46;26.27;;;19.23;;
32038;SDS011;18549;42.286;22.688;2022-11-15T09:17:13;29.27;;;19.97;;
32038;SDS011;18549;42.286;22.688;2022-11-15T09:19:40;24.97;;;17.97;;
32038;SDS011;18549;42.286;22.688;2022-11-15T09:22:07;22.77;;;17.17;;
32038;SDS011;18549;42.286;22.688;2022-11-15T09:24:34;28.57;;;18.33;;
32038;SDS011;18549;42.286;22.688;2022-11-15T09:27:05;31.03;;;18.67;;
32038;SDS011;18549;42.286;22.688;2022-11-15T09:29:32;28.73;;;18.00;;
32038;SDS011;18549;42.286;22.688;2022-11-15T09:32:00;27.33;;;18.23;;
32038;SDS011;18549;42.286;22.688;2022-11-15T09:34:27;24.73;;;18.00;;
32038;SDS011;18549;42.286;22.688;2022-11-15T09:36:53;22.53;;;16.03;;
32038;SDS011;18549;42.286;22.688;2022-11-15T09:39:21;24.20;;;16.73;;
32038;SDS011;18549;42.286;22.688;2022-11-15T09:41:54;22.10;;;16.07;;
32038;SDS011;18549;42.286;22.688;2022-11-15T09:44:51;20.67;;;15.13;;
32038;SDS011;18549;42.286;22.688;2022-11-15T09:47:36;21.47;;;15.20;;
32038;SDS011;18549;42.286;22.688;2022-11-15T09:50:12;21.70;;;13.47;;
32038;SDS011;18549;42.286;22.688;2022-11-15T09:52:42;16.53;;;13.47;;
32038;SDS011;18549;42.286;22.688;2022-11-15T09:55:11;28.03;;;14.70;;
32038;SDS011;18549;42.286;22.688;2022-11-15T09:57:49;21.33;;;13.30;;
32038;SDS011;18549;42.286;22.688;2022-11-15T10:00:25;22.67;;;13.03;;
32038;SDS011;18549;42.286;22.688;2022-11-15T10:05:40;19.00;;;14.50;;
32038;SDS011;18549;42.286;22.688;2022-11-15T10:08:13;20.60;;;13.80;;
32038;SDS011;18549;42.286;22.688;2022-11-15T10:11:01;23.03;;;14.70;;
32038;SDS011;18549;42.286;22.688;2022-11-15T10:13:31;17.73;;;14.53;;
32038;SDS011;18549;42.286;22.688;2022-11-15T10:16:02;20.80;;;15.53;;
32038;SDS011;18549;42.286;22.688;2022-11-15T10:18:40;24.80;;;14.90;;
32038;SDS011;18549;42.286;22.688;2022-11-15T10:21:19;24.27;;;14.33;;
32038;SDS011;18549;42.286;22.688;2022-11-15T10:23:49;20.83;;;13.43;;
32038;SDS011;18549;42.286;22.688;2022-11-15T10:26:17;24.87;;;13.57;;
32038;SDS011;18549;42.286;22.688;2022-11-15T10:28:49;22.87;;;14.03;;
32038;SDS011;18549;42.286;22.688;2022-11-15T10:31:21;21.07;;;15.20;;
32038;SDS011;18549;42.286;22.688;2022-11-15T10:33:56;21.17;;;15.40;;
32038;SDS011;18549;42.286;22.688;2022-11-15T10:36:32;21.30;;;14.73;;
32038;SDS011;18549;42.286;22.688;2022-11-15T10:39:00;21.83;;;15.17;;
32038;SDS011;18549;42.286;22.688;2022-11-15T10:41:34;24.93;;;14.83;;
32038;SDS011;18549;42.286;22.688;2022-11-15T10:47:06;18.77;;;14.67;;
32038;SDS011;18549;42.286;22.688;2022-11-15T10:49:58;23.27;;;16.57;;
32038;SDS011;18549;42.286;22.688;2022-11-15T10:52:28;20.90;;;14.60;;
32038;SDS011;18549;42.286;22.688;2022-11-15T10:54:57;25.93;;;15.50;;
32038;SDS011;18549;42.286;22.688;2022-11-15T10:57:28;24.43;;;14.33;;
32038;SDS011;18549;42.286;22.688;2022-11-15T11:00:00;28.83;;;15.30;;
32038;SDS011;18549;42.286;22.688;2022-11-15T11:02:31;24.37;;;14.37;;
32038;SDS011;18549;42.286;22.688;2022-11-15T11:05:00;21.73;;;14.10;;
32038;SDS011;18549;42.286;22.688;2022-11-15T11:07:29;18.07;;;13.43;;
32038;SDS011;18549;42.286;22.688;2022-11-15T11:10:00;17.07;;;12.87;;
32038;SDS011;18549;42.286;22.688;2022-11-15T11:12:30;15.87;;;12.23;;
32038;SDS011;18549;42.286;22.688;2022-11-15T11:14:59;16.63;;;13.20;;
32038;SDS011;18549;42.286;22.688;2022-11-15T11:17:35;20.50;;;13.47;;
32038;SDS011;18549;42.286;22.688;2022-11-15T11:20:18;22.43;;;13.40;;
32038;SDS011;18549;42.286;22.688;2022-11-15T11:22:54;24.00;;;16.90;;
32038;SDS011;18549;42.286;22.688;2022-11-15T11:25:30;20.17;;;15.17;;
32038;SDS011;18549;42.286;22.688;2022-11-15T11:28:08;22.87;;;18.00;;
32038;SDS011;18549;42.286;22.688;2022-11-15T11:30:54;28.53;;;16.33;;
32038;SDS011;18549;42.286;22.688;2022-11-15T11:33:33;23.20;;;15.77;;
32038;SDS011;18549;42.286;22.688;2022-11-15T11:36:09;24.00;;;16.70;;
32038;SDS011;18549;42.286;22.688;2022-11-15T11:38:50;24.07;;;16.17;;
32038;SDS011;18549;42.286;22.688;2022-11-15T11:41:29;30.47;;;17.33;;
32038;SDS011;18549;42.286;22.688;2022-11-15T11:44:11;26.23;;;17.70;;
32038;SDS011;18549;42.286;22.688;2022-11-15T11:46:52;25.23;;;17.40;;
32038;SDS011;18549;42.286;22.688;2022-11-15T11:49:23;29.07;;;16.57;;
32038;SDS011;18549;42.286;22.688;2022-11-15T11:51:58;21.50;;;16.10;;
32038;SDS011;18549;42.286;22.688;2022-11-15T11:54:31;29.30;;;16.27;;
32038;SDS011;18549;42.286;22.688;2022-11-15T11:57:05;24.53;;;16.60;;
32038;SDS011;18549;42.286;22.688;2022-11-15T11:59:37;22.60;;;15.43;;
32038;SDS011;18549;42.286;22.688;2022-11-15T12:02:12;22.50;;;14.87;;
32038;SDS011;18549;42.286;22.688;2022-11-15T12:04:43;25.83;;;14.33;;
32038;SDS011;18549;42.286;22.688;2022-11-15T12:07:15;23.90;;;15.10;;
32038;SDS011;18549;42.286;22.688;2022-11-15T12:09:48;23.67;;;15.80;;
32038;SDS011;18549;42.286;22.688;2022-11-15T12:12:25;19.23;;;13.40;;
32038;SDS011;18549;42.286;22.688;2022-11-15T12:14:59;17.27;;;13.07;;
32038;SDS011;18549;42.286;22.688;2022-11-15T12:17:30;16.93;;;14.47;;
32038;SDS011;18549;42.286;22.688;2022-11-15T12:19:58;20.20;;;14.53;;
32038;SDS011;18549;42.286;22.688;2022-11-15T12:22:34;19.47;;;13.57;;
32038;SDS011;18549;42.286;22.688;2022-11-15T12:25:08;27.00;;;15.47;;
32038;SDS011;18549;42.286;22.688;2022-11-15T12:27:46;26.90;;;14.73;;
32038;SDS011;18549;42.286;22.688;2022-11-15T12:30:17;20.17;;;13.17;;
32038;SDS011;18549;42.286;22.688;2022-11-15T12:32:56;26.47;;;13.37;;
32038;SDS011;18549;42.286;22.688;2022-11-15T12:35:26;25.50;;;14.73;;
32038;SDS011;18549;42.286;22.688;2022-11-15T12:37:58;23.63;;;13.77;;
32038;SDS011;18549;42.286;22.688;2022-11-15T12:40:36;19.10;;;13.27;;
32038;SDS011;18549;42.286;22.688;2022-11-15T12:46:10;24.50;;;13.70;;
32038;SDS011;18549;42.286;22.688;2022-11-15T12:54:51;16.50;;;12.40;;
32038;SDS011;18549;42.286;22.688;2022-11-15T12:57:37;25.00;;;13.17;;
32038;SDS011;18549;42.286;22.688;2022-11-15T13:03:27;21.33;;;14.40;;
32038;SDS011;18549;42.286;22.688;2022-11-15T13:08:56;17.40;;;14.43;;
32038;SDS011;18549;42.286;22.688;2022-11-15T13:14:35;22.93;;;15.33;;
32038;SDS011;18549;42.286;22.688;2022-11-15T13:20:19;21.60;;;15.57;;
32038;SDS011;18549;42.286;22.688;2022-11-15T13:22:48;19.60;;;13.63;;
32038;SDS011;18549;42.286;22.688;2022-11-15T13:28:22;18.50;;;13.63;;
32038;SDS011;18549;42.286;22.688;2022-11-15T13:30:54;26.07;;;13.67;;
32038;SDS011;18549;42.286;22.688;2022-11-15T13:33:28;19.20;;;13.00;;
32038;SDS011;18549;42.286;22.688;2022-11-15T13:35:58;22.93;;;13.07;;
32038;SDS011;18549;42.286;22.688;2022-11-15T13:38:29;24.93;;;14.40;;
32038;SDS011;18549;42.286;22.688;2022-11-15T13:40:59;22.60;;;13.77;;
32038;SDS011;18549;42.286;22.688;2022-11-15T13:43:40;22.50;;;15.00;;
32038;SDS011;18549;42.286;22.688;2022-11-15T13:46:10;23.97;;;15.83;;
32038;SDS011;18549;42.286;22.688;2022-11-15T13:48:39;29.13;;;16.63;;
32038;SDS011;18549;42.286;22.688;2022-11-15T13:51:09;25.03;;;16.67;;
32038;SDS011;18549;42.286;22.688;2022-11-15T13:53:43;21.97;;;16.40;;
32038;SDS011;18549;42.286;22.688;2022-11-15T13:56:14;23.23;;;14.80;;
32038;SDS011;18549;42.286;22.688;2022-11-15T13:58:43;24.77;;;18.20;;
32038;SDS011;18549;42.286;22.688;2022-11-15T14:01:14;31.27;;;19.33;;
32038;SDS011;18549;42.286;22.688;2022-11-15T14:03:49;29.67;;;19.40;;
32038;SDS011;18549;42.286;22.688;2022-11-15T14:06:19;32.00;;;21.53;;
32038;SDS011;18549;42.286;22.688;2022-11-15T14:09:04;30.27;;;21.93;;
32038;SDS011;18549;42.286;22.688;2022-11-15T14:11:59;34.87;;;22.77;;
32038;SDS011;18549;42.286;22.688;2022-11-15T14:14:27;42.20;;;28.27;;
32038;SDS011;18549;42.286;22.688;2022-11-15T14:16:56;42.13;;;25.97;;
32038;SDS011;18549;42.286;22.688;2022-11-15T14:19:35;42.97;;;26.53;;
32038;SDS011;18549;42.286;22.688;2022-11-15T14:22:16;41.90;;;26.27;;
32038;SDS011;18549;42.286;22.688;2022-11-15T14:24:47;45.53;;;27.50;;
32038;SDS011;18549;42.286;22.688;2022-11-15T14:27:34;45.30;;;31.90;;
32038;SDS011;18549;42.286;22.688;2022-11-15T14:30:00;44.70;;;30.33;;
32038;SDS011;18549;42.286;22.688;2022-11-15T14:32:28;45.07;;;30.37;;
32038;SDS011;18549;42.286;22.688;2022-11-15T14:35:03;60.87;;;34.40;;
32038;SDS011;18549;42.286;22.688;2022-11-15T14:37:38;45.33;;;31.27;;
32038;SDS011;18549;42.286;22.688;2022-11-15T14:40:05;44.43;;;29.60;;
32038;SDS011;18549;42.286;22.688;2022-11-15T14:42:36;46.73;;;31.73;;
32038;SDS011;18549;42.286;22.688;2022-11-15T14:45:08;52.17;;;36.37;;
32038;SDS011;18549;42.286;22.688;2022-11-15T14:47:38;57.23;;;37.80;;
32038;SDS011;18549;42.286;22.688;2022-11-15T14:50:05;63.70;;;41.27;;
32038;SDS011;18549;42.286;22.688;2022-11-15T14:52:32;72.23;;;43.40;;
32038;SDS011;18549;42.286;22.688;2022-11-15T14:55:00;69.10;;;42.10;;
32038;SDS011;18549;42.286;22.688;2022-11-15T14:57:29;61.80;;;41.13;;
32038;SDS011;18549;42.286;22.688;2022-11-15T14:59:59;62.50;;;41.03;;